VOZ846 YMHB-YMML
Flight info
| Callsign | VOZ846 |
|---|---|
| Flight time | N/A |
| Altitude | 40000 |
| Route | TASUM H111 LT H215 RAZZI W687 ML |
| Aircraft | B737/M-SDE2E3FGHIRWXY/LB1 |
Departure
| Time | 2026-04-21 07:20 |
|---|---|
| Airport | Hobart International Airport (YMHB) |
Arrival
| Time | N/A |
|---|---|
| Airport | Melbourne Airport (YMML) |
| Time | Latitude | Longitude | Altitude | Speed | Heading |
|---|---|---|---|---|---|
| 2026-04-21 07:01 | -42.83632 | 147.50538 | 18 ft | 0 kts | 190° |
| 2026-04-21 07:11 | -42.83631 | 147.50538 | 18 ft | 1 kts | 190° |
| 2026-04-21 07:11 | -42.83626 | 147.50537 | -2 ft | 4 kts | 244° |
| 2026-04-21 07:12 | -42.83608 | 147.50560 | 19 ft | 4 kts | 214° |
| 2026-04-21 07:12 | -42.83586 | 147.50577 | 21 ft | 4 kts | 183° |
| 2026-04-21 07:12 | -42.83577 | 147.50575 | 18 ft | 0 kts | 120° |
| 2026-04-21 07:15 | -42.83578 | 147.50577 | 18 ft | 1 kts | 120° |
| 2026-04-21 07:16 | -42.83591 | 147.50616 | 18 ft | 8 kts | 101° |
| 2026-04-21 07:16 | -42.83556 | 147.50683 | 22 ft | 11 kts | 12° |
| 2026-04-21 07:16 | -42.83476 | 147.50611 | 19 ft | 18 kts | 318° |
| 2026-04-21 07:16 | -42.83356 | 147.50585 | 17 ft | 21 kts | 40° |
| 2026-04-21 07:17 | -42.83335 | 147.50615 | 15 ft | 0 kts | 49° |
| 2026-04-21 07:17 | -42.83310 | 147.50651 | 15 ft | 16 kts | 46° |
| 2026-04-21 07:17 | -42.83177 | 147.50586 | 16 ft | 32 kts | 315° |
| 2026-04-21 07:18 | -42.82987 | 147.50330 | 20 ft | 27 kts | 315° |
| 2026-04-21 07:18 | -42.82921 | 147.50124 | 19 ft | 23 kts | 293° |
| 2026-04-21 07:18 | -42.82850 | 147.50122 | 19 ft | 13 kts | 94° |
| 2026-04-21 07:18 | -42.82866 | 147.50165 | 19 ft | 0 kts | 132° |
| 2026-04-21 07:20 | -42.83030 | 147.50387 | 19 ft | 88 kts | 134° |
| 2026-04-21 07:20 | -42.83684 | 147.51292 | 183 ft | 170 kts | 131° |
| 2026-04-21 07:20 | -42.84560 | 147.52501 | 1300 ft | 192 kts | 129° |
| 2026-04-21 07:21 | -42.85488 | 147.53735 | 2681 ft | 172 kts | 131° |
| 2026-04-21 07:21 | -42.86340 | 147.54820 | 3841 ft | 171 kts | 133° |
| 2026-04-21 07:21 | -42.87292 | 147.56055 | 4297 ft | 209 kts | 134° |
| 2026-04-21 07:21 | -42.88413 | 147.57519 | 4854 ft | 229 kts | 133° |
| 2026-04-21 07:22 | -42.89510 | 147.58954 | 6138 ft | 209 kts | 134° |
| 2026-04-21 07:22 | -42.90619 | 147.60520 | 7544 ft | 193 kts | 128° |
| 2026-04-21 07:22 | -42.91181 | 147.62159 | 8261 ft | 199 kts | 88° |
| 2026-04-21 07:22 | -42.90752 | 147.63999 | 8486 ft | 223 kts | 47° |
| 2026-04-21 07:23 | -42.89372 | 147.64993 | 9088 ft | 231 kts | 5° |
| 2026-04-21 07:23 | -42.87850 | 147.64485 | 10201 ft | 228 kts | 330° |
| 2026-04-21 07:23 | -42.86652 | 147.62975 | 10867 ft | 251 kts | 310° |
| 2026-04-21 07:23 | -42.85675 | 147.60799 | 11151 ft | 287 kts | 298° |
| 2026-04-21 07:24 | -42.84976 | 147.58101 | 11564 ft | 316 kts | 285° |
| 2026-04-21 07:24 | -42.84649 | 147.55024 | 12085 ft | 340 kts | 275° |
| 2026-04-21 07:24 | -42.84603 | 147.51718 | 12666 ft | 357 kts | 279° |
| 2026-04-21 07:24 | -42.83730 | 147.48538 | 13192 ft | 364 kts | 308° |
| 2026-04-21 07:25 | -42.81882 | 147.46190 | 14032 ft | 366 kts | 329° |
| 2026-04-21 07:25 | -42.79550 | 147.44781 | 14823 ft | 368 kts | 352° |
| 2026-04-21 07:25 | -42.77014 | 147.44854 | 15687 ft | 370 kts | 15° |
| 2026-04-21 07:25 | -42.74742 | 147.46369 | 16492 ft | 374 kts | 39° |
| 2026-04-21 07:26 | -42.73117 | 147.49058 | 17174 ft | 384 kts | 63° |
| 2026-04-21 07:26 | -42.72938 | 147.49563 | 17284 ft | 385 kts | 66° |
| 2026-04-21 07:26 | -42.72387 | 147.53163 | 17939 ft | 396 kts | 90° |
| 2026-04-21 07:26 | -42.73036 | 147.56852 | 18438 ft | 410 kts | 116° |
| 2026-04-21 07:27 | -42.74842 | 147.59898 | 18871 ft | 424 kts | 141° |
| 2026-04-21 07:27 | -42.77519 | 147.61642 | 19400 ft | 431 kts | 168° |
| 2026-04-21 07:27 | -42.80466 | 147.61645 | 20076 ft | 432 kts | 194° |
| 2026-04-21 07:27 | -42.83232 | 147.60209 | 21290 ft | 414 kts | 201° |
| 2026-04-21 07:28 | -42.85828 | 147.58824 | 23005 ft | 393 kts | 209° |
| 2026-04-21 07:28 | -42.88035 | 147.56692 | 24079 ft | 389 kts | 215° |
| 2026-04-21 07:28 | -42.90402 | 147.54815 | 24405 ft | 401 kts | 204° |
| 2026-04-21 07:28 | -42.92905 | 147.53025 | 24625 ft | 414 kts | 217° |
| 2026-04-21 07:29 | -42.94827 | 147.50067 | 25000 ft | 423 kts | 239° |
| 2026-04-21 07:29 | -42.95758 | 147.46273 | 25597 ft | 426 kts | 262° |
| 2026-04-21 07:29 | -42.95596 | 147.42213 | 26090 ft | 435 kts | 282° |
| 2026-04-21 07:29 | -42.94333 | 147.38435 | 26545 ft | 445 kts | 304° |
| 2026-04-21 07:30 | -42.92107 | 147.35454 | 27019 ft | 454 kts | 325° |
| 2026-04-21 07:30 | -42.89192 | 147.33711 | 27509 ft | 462 kts | 345° |
| 2026-04-21 07:30 | -42.85992 | 147.33163 | 28010 ft | 465 kts | 353° |
| 2026-04-21 07:30 | -42.82835 | 147.32417 | 28424 ft | 468 kts | 345° |
| 2026-04-21 07:31 | -42.79625 | 147.31534 | 28779 ft | 474 kts | 354° |
| 2026-04-21 07:31 | -42.75921 | 147.31658 | 29233 ft | 479 kts | 6° |
| 2026-04-21 07:31 | -42.63196 | 147.34515 | 30669 ft | 491 kts | 8° |
| 2026-04-21 07:31 | -42.49648 | 147.36980 | 32367 ft | 487 kts | 6° |
| 2026-04-21 07:32 | -42.36279 | 147.39193 | 34127 ft | 483 kts | 6° |
| 2026-04-21 07:32 | -42.32636 | 147.39630 | 34512 ft | 481 kts | 359° |
| 2026-04-21 07:32 | -42.29303 | 147.39366 | 34861 ft | 478 kts | 349° |
| 2026-04-21 07:32 | -42.20124 | 147.36932 | 35786 ft | 476 kts | 347° |
| 2026-04-21 07:33 | -42.12482 | 147.35072 | 36469 ft | 476 kts | 348° |
| 2026-04-21 07:33 | -41.99512 | 147.32008 | 37740 ft | 472 kts | 348° |
| 2026-04-21 07:33 | -41.86573 | 147.28924 | 38864 ft | 469 kts | 347° |
| 2026-04-21 07:33 | -41.82937 | 147.28057 | 39185 ft | 468 kts | 347° |
| 2026-04-21 07:34 | -41.79725 | 147.27293 | 39345 ft | 468 kts | 347° |
| 2026-04-21 07:34 | -41.76517 | 147.26531 | 39515 ft | 469 kts | 347° |
| 2026-04-21 07:34 | -41.73303 | 147.25768 | 39714 ft | 469 kts | 347° |
| 2026-04-21 07:34 | -41.70094 | 147.25008 | 39939 ft | 467 kts | 347° |
| 2026-04-21 07:35 | -41.66897 | 147.24252 | 40183 ft | 466 kts | 347° |
| 2026-04-21 07:35 | -41.63704 | 147.23497 | 40349 ft | 466 kts | 347° |
| 2026-04-21 07:35 | -41.53979 | 147.21062 | 40395 ft | 471 kts | 341° |
| 2026-04-21 07:36 | -41.36675 | 147.11710 | 40416 ft | 465 kts | 334° |
| 2026-04-21 07:36 | -41.12704 | 146.98749 | 40404 ft | 464 kts | 335° |
| 2026-04-21 07:37 | -40.88887 | 146.86008 | 40404 ft | 463 kts | 335° |
| 2026-04-21 07:37 | -40.64931 | 146.73288 | 40404 ft | 463 kts | 335° |
| 2026-04-21 07:38 | -40.41021 | 146.60691 | 40383 ft | 463 kts | 335° |
| 2026-04-21 07:38 | -40.17140 | 146.48206 | 40373 ft | 462 kts | 335° |
| 2026-04-21 07:39 | -39.98613 | 146.38583 | 40373 ft | 462 kts | 335° |
| 2026-04-21 07:39 | -39.74781 | 146.26343 | 40370 ft | 462 kts | 335° |
| 2026-04-21 07:40 | -39.56312 | 146.16946 | 40363 ft | 462 kts | 335° |
| 2026-04-21 07:40 | -39.37975 | 146.07675 | 40353 ft | 462 kts | 335° |
| 2026-04-21 07:41 | -39.14031 | 145.95599 | 40341 ft | 461 kts | 335° |
| 2026-04-21 07:41 | -38.90106 | 145.83620 | 40331 ft | 461 kts | 335° |
| 2026-04-21 07:42 | -38.66150 | 145.71711 | 40321 ft | 461 kts | 335° |
| 2026-04-21 07:42 | -38.52658 | 145.64725 | 40309 ft | 461 kts | 338° |
| 2026-04-21 07:43 | -38.47267 | 145.62186 | 40317 ft | 461 kts | 336° |
| 2026-04-21 07:44 | -38.29423 | 145.50171 | 40284 ft | 456 kts | 327° |
| 2026-04-21 07:44 | -38.06995 | 145.34809 | 40285 ft | 457 kts | 327° |
| 2026-04-21 07:45 | -38.00085 | 145.29225 | 40280 ft | 449 kts | 312° |
| 2026-04-21 07:45 | -37.86004 | 145.10435 | 40210 ft | 448 kts | 309° |
| 2026-04-21 07:46 | -37.77285 | 144.98987 | 39338 ft | 444 kts | 309° |
| 2026-04-21 07:46 | -37.70443 | 144.90021 | 38003 ft | 432 kts | 309° |
| 2026-04-21 07:46 | -37.68347 | 144.87358 | 37259 ft | 436 kts | 315° |
| 2026-04-21 07:46 | -37.67074 | 144.86099 | 36908 ft | 439 kts | 322° |